Airfield :
LOGIN :

Register | Disclaimer

   EN    FR    IT 

 










Legend :    VFR   Marginal VFR   IFR   Intensive IFR   Very Intensive IFR
Visi :
Ceiling :
>= 8 km
>= 3000ft
5 to 8 km
1000 to 3000 ft
1500m to 5 km
500 to 1000 ft
800 to 1500m
200 to 500 ft
< 800m
< 200 ft
Symbols :   Thunderstorms  Fog  Heavy snow  Heavy precipitations  Wind > 20 kt
SIGMETs :     Misc.  Thunderstorms  Icing  Turbulence  Mountain Waves  Volcanic Ashes






- Airport Elevation : 202 ft
- IATA code : LGW


EGKK - London Gatwick

CURRENT METAR :
  • 031320Z 14006KT 120V180 9999 FEW032 SCT049 19/11 Q1012

EXPIRED METARs :
  • 031250Z 12006KT 9999 FEW040 19/11 Q1012
  • 031220Z 07005KT 010V110 9999 SCT038 19/11 Q1012
  • 031150Z 05004KT 360V120 9999 SCT038 19/10 Q1012
  • 031120Z 05005KT 010V090 9999 SCT035 19/11 Q1012
  • 031050Z 12004KT 070V150 9999 SCT034 18/09 Q1013

TAF TAF EGKK
Valid from the 03 at 12:00 until the 04 at 18:00 UTC


031100Z 0312/0418 12004KT 9999 SCT030
PROB30
TEMPO 0312/0319 7000 SHRA
TEMPO 0323/0408 7000
PROB40 0403/0407 3000 BR BKN003
PROB40
TEMPO 0411/0418 7000 SHRA



MET'MAP, your aeronautical weather chart ! - Copyright ORBIFLY December 2007 - Disclaimer

ORBIFLY MET'MAP TEAM :

Programming & Development : Alexandra Zaïnal
Concept & original design : Baudouin d'Aumeries
Assistance for programming : Marc-Olivier Méhu
Technical & hardware support : Manuel Goepfert

Contact : metmap@orbifly.com




SOURCES & CREDITS :

   NOAA